createdAt,value
2022-11-25T00:02:06.249Z,22.02
2022-11-25T00:12:14.417Z,19.21
2022-11-25T00:22:22.434Z,17.52
2022-11-25T00:32:30.403Z,17.78
2022-11-25T00:42:38.396Z,16.96
2022-11-25T00:52:46.436Z,19.93
2022-11-25T01:02:54.409Z,16.15
2022-11-25T01:13:02.327Z,17.11
2022-11-25T01:23:10.347Z,16.84
2022-11-25T01:33:18.233Z,18.73
2022-11-25T01:43:26.447Z,16.5
2022-11-25T01:53:34.604Z,18.76
2022-11-25T02:03:42.540Z,18.48
2022-11-25T02:13:51.750Z,19.27
2022-11-25T02:23:59.751Z,19.33
2022-11-25T02:34:07.645Z,19.39
2022-11-25T02:44:15.645Z,19.61
2022-11-25T02:54:23.680Z,17.45
2022-11-25T03:04:31.673Z,15.01
2022-11-25T03:14:39.801Z,13.7
2022-11-25T03:24:47.758Z,16.33
2022-11-25T03:34:55.828Z,15.1
2022-11-25T03:45:03.791Z,16.06
2022-11-25T03:55:11.869Z,16.76
2022-11-25T04:05:22.905Z,15.64
2022-11-25T04:15:20.891Z,17.07
2022-11-25T04:25:28.963Z,20
2022-11-25T04:35:36.932Z,18.21
2022-11-25T04:46:06.671Z,19.28
2022-11-25T04:55:52.165Z,19.8
2022-11-25T05:06:00.146Z,18.76
2022-11-25T05:16:08.177Z,22.09
2022-11-25T05:26:16.144Z,18.26
2022-11-25T05:36:24.198Z,17.63
2022-11-25T05:46:32.421Z,14.02
2022-11-25T05:56:40.815Z,13.19
2022-11-25T06:06:49.085Z,14.5
2022-11-25T06:16:57.207Z,11.44
2022-11-25T06:27:05.224Z,14.36
2022-11-25T06:36:55.212Z,11.66
2022-11-25T06:46:07.311Z,10.26
2022-11-25T06:56:06.381Z,13.82
2022-11-25T07:06:18.366Z,13.32
2022-11-25T07:16:16.425Z,13.96
2022-11-25T07:26:24.254Z,15.45
2022-11-25T07:36:32.220Z,17.17
2022-11-25T07:46:41.508Z,14.03
2022-11-25T07:56:49.519Z,13.78
2022-11-25T08:06:59.957Z,10.5
2022-11-25T08:16:58.087Z,15.3
2022-11-25T08:27:06.287Z,15.64
2022-11-25T08:37:14.235Z,12.41
2022-11-25T08:47:22.248Z,8.87
2022-11-25T08:57:31.364Z,8.36
2022-11-25T09:07:39.550Z,8.14
2022-11-25T09:17:47.478Z,7.45
2022-11-25T09:27:56.400Z,8.39
2022-11-25T09:38:04.483Z,11.49
2022-11-25T09:48:15.877Z,8.76
2022-11-25T09:58:15.017Z,12.02
2022-11-25T10:08:22.958Z,10.14
2022-11-25T10:18:30.871Z,7.25
2022-11-25T10:28:38.849Z,8.67
2022-11-25T10:38:46.780Z,8.15
2022-11-25T10:48:54.560Z,8.87
2022-11-25T10:59:02.570Z,6.43
2022-11-25T11:09:10.607Z,8.78
2022-11-25T11:19:18.641Z,8.43
2022-11-25T11:29:26.544Z,10.89
2022-11-25T11:39:34.339Z,8.39
2022-11-25T11:49:42.294Z,14.37
2022-11-25T11:59:50.100Z,14.82
2022-11-25T12:09:58.093Z,11.39
2022-11-25T12:20:06.127Z,10.59
2022-11-25T12:30:14.297Z,13.34
2022-11-25T12:40:22.315Z,10.33
2022-11-25T12:50:30.163Z,11.81
2022-11-25T13:00:42.188Z,13.02
2022-11-25T13:10:46.909Z,10.6
2022-11-25T13:20:54.837Z,11.08
2022-11-25T13:31:02.607Z,15.43
2022-11-25T13:41:10.644Z,14.2
2022-11-25T13:51:17.996Z,15.26
2022-11-25T14:01:29.719Z,4.89
2022-11-25T14:11:32.423Z,8.79
2022-11-25T14:21:40.620Z,5.07
2022-11-25T14:31:49.712Z,6.55
2022-11-25T14:41:57.593Z,8.02
2022-11-25T14:52:05.391Z,4.8
2022-11-25T15:02:13.789Z,6.35
2022-11-25T15:12:22.239Z,6.91
2022-11-25T15:22:30.850Z,6.01
2022-11-25T15:32:39.695Z,7.49
2022-11-25T15:42:47.768Z,7.63
2022-11-25T15:52:58.833Z,5.82
2022-11-25T16:02:57.915Z,7.98
2022-11-25T16:13:05.351Z,19.12
2022-11-25T16:23:13.302Z,7.25
2022-11-25T16:33:21.402Z,8.74
2022-11-25T16:43:30.348Z,8.05
2022-11-25T16:53:38.367Z,5.05
2022-11-25T17:03:46.594Z,9.45
2022-11-25T17:13:54.684Z,9.64
2022-11-25T17:24:02.372Z,7.91
2022-11-25T17:34:12.235Z,7.68
2022-11-25T17:44:20.698Z,9.02
2022-11-25T17:54:30.809Z,7.67
2022-11-25T18:04:40.201Z,7.12
2022-11-25T18:14:48.264Z,6.87
2022-11-25T18:25:03.090Z,6.98
2022-11-25T18:34:58.556Z,8.48
2022-11-25T18:45:06.584Z,13.9
2022-11-25T18:55:14.694Z,10.04
2022-11-25T19:05:22.774Z,7.46
2022-11-25T19:15:33.473Z,12.62
2022-11-25T19:25:34.453Z,14.65
2022-11-25T19:35:32.922Z,12.39
2022-11-25T19:45:41.846Z,10.88
2022-11-25T19:55:56.037Z,12.3
2022-11-25T20:05:59.217Z,15.03
2022-11-25T20:15:58.897Z,10.38
2022-11-25T20:26:09.357Z,12.14
2022-11-25T20:46:09.729Z,13.21
2022-11-25T20:56:19.323Z,19.81
2022-11-25T21:06:27.081Z,10.59
2022-11-25T21:16:35.070Z,10.26
2022-11-25T21:26:44.191Z,9.97
2022-11-25T21:36:52.144Z,17.88
2022-11-25T21:47:00.096Z,15.51
2022-11-25T21:57:08.099Z,16.32
2022-11-25T22:07:16.082Z,11.73
2022-11-25T22:17:26.407Z,12.27
2022-11-25T22:27:34.319Z,10.14
2022-11-25T22:37:44.296Z,10.79
2022-11-25T22:47:52.241Z,8.52
2022-11-25T22:58:00.736Z,7.99
2022-11-25T23:08:10.075Z,6.69
2022-11-25T23:18:19.989Z,5.31
2022-11-25T23:28:27.439Z,4.81
2022-11-25T23:38:35.589Z,7.98
2022-11-25T23:48:45.125Z,5.56
2022-11-25T23:58:55.203Z,6.34
